Time;durP1;ratioP1;P1;durP2;ratioP2;P2;SDS_P1;SDS_P2;PMS_P1;PMS_P2;Temp;Humidity;BMP_temperature;BMP_pressure;BME280_temperature;BME280_humidity;BME280_pressure;Samples;Min_cycle;Max_cycle;Signal;HPM_P1;HPM_P2
2021/12/12 00:00:14;;;;;;;147.05;65.15;;;3.00;99.90;;;2.91;64.59;99211.41;6037941;23;20129;-81
2021/12/12 00:03:31;;;;;;;134.40;59.60;;;2.90;99.90;;;2.92;63.97;99215.72;6042199;23;20033;-81
2021/12/12 00:06:09;;;;;;;141.93;60.10;;;2.90;99.90;;;3.01;64.13;99222.50;6054470;23;20686;-81
2021/12/12 00:08:44;;;;;;;137.77;63.22;;;2.90;99.90;;;3.03;63.30;99228.47;6050810;23;20050;-81
2021/12/12 00:11:13;;;;;;;129.35;59.55;;;2.90;99.90;;;3.08;63.48;99220.63;6022721;23;20763;-81
2021/12/12 00:13:50;;;;;;;132.23;61.17;;;3.00;99.90;;;2.99;63.81;99220.03;6035333;23;20027;-81
2021/12/12 00:16:16;;;;;;;134.35;58.47;;;3.00;99.90;;;2.95;64.10;99224.19;6012320;23;20376;-81
2021/12/12 00:18:42;;;;;;;147.05;60.13;;;3.00;99.90;;;3.02;63.09;99240.22;6063692;23;20030;-81
2021/12/12 00:21:09;;;;;;;123.63;56.42;;;3.00;99.90;;;2.98;63.42;99233.66;6040815;23;20051;-81
2021/12/12 00:23:35;;;;;;;133.35;57.80;;;3.00;99.90;;;3.01;64.01;99239.41;6040330;23;20027;-81
2021/12/12 00:26:03;;;;;;;136.95;59.08;;;3.00;99.90;;;3.02;63.75;99238.34;6062192;23;20316;-81
2021/12/12 00:28:29;;;;;;;134.05;59.47;;;3.00;99.90;;;3.13;62.99;99242.22;6043112;23;20337;-82
2021/12/12 00:30:58;;;;;;;138.80;61.65;;;3.00;99.90;;;3.15;63.05;99245.50;6038665;23;20023;-82
2021/12/12 00:33:25;;;;;;;138.40;59.45;;;3.00;99.90;;;3.18;63.12;99245.09;6042211;23;20074;-81
2021/12/12 00:35:51;;;;;;;137.63;62.72;;;3.10;99.90;;;3.22;62.40;99250.84;6041422;23;20022;-81
2021/12/12 00:38:26;;;;;;;144.38;61.28;;;3.10;99.90;;;3.28;62.51;99243.78;6021251;23;20018;-81
2021/12/12 00:40:54;;;;;;;156.55;68.20;;;3.10;99.90;;;3.28;62.92;99241.91;6053577;23;20019;-81
2021/12/12 00:43:29;;;;;;;140.02;64.20;;;3.20;99.90;;;3.25;62.93;99247.72;6022006;23;20029;-81
2021/12/12 00:45:58;;;;;;;146.30;67.63;;;3.10;99.90;;;3.26;62.41;99252.88;6067750;23;20398;-81
2021/12/12 00:48:25;;;;;;;134.40;60.45;;;3.20;99.90;;;3.29;62.12;99251.63;6044853;23;20015;-81
2021/12/12 00:50:51;;;;;;;150.07;65.10;;;3.20;99.90;;;3.31;62.24;99248.72;6021738;23;20094;-81
2021/12/12 00:53:22;;;;;;;133.00;61.17;;;3.20;99.90;;;3.30;61.79;99247.91;6022585;23;20027;-81
2021/12/12 00:55:49;;;;;;;140.05;63.03;;;3.20;99.90;;;3.33;62.67;99263.56;6046433;23;20102;-81
2021/12/12 00:58:16;;;;;;;142.00;60.92;;;3.20;99.90;;;3.34;61.71;99259.84;6041423;23;20018;-81
2021/12/12 01:01:02;;;;;;;135.65;62.20;;;3.30;99.90;;;3.30;62.02;99265.84;6043308;23;20023;-81
2021/12/12 01:03:38;;;;;;;128.63;59.20;;;3.20;99.90;;;3.28;62.69;99273.28;6053956;23;20030;-81
2021/12/12 01:06:06;;;;;;;133.05;58.13;;;3.30;99.90;;;3.10;62.82;99274.81;6017285;23;20324;-81
2021/12/12 01:08:36;;;;;;;130.88;59.50;;;3.20;99.90;;;3.18;62.82;99279.94;6041126;23;20023;-81
2021/12/12 01:11:11;;;;;;;143.55;60.25;;;3.10;99.90;;;3.22;62.65;99285.69;6016198;23;20038;-81
2021/12/12 01:13:38;;;;;;;118.80;55.20;;;3.10;99.90;;;3.21;62.85;99287.56;6042603;23;20030;-81
2021/12/12 01:16:14;;;;;;;127.88;55.50;;;3.10;99.90;;;3.24;62.32;99289.81;6042464;23;20026;-81
2021/12/12 01:18:44;;;;;;;127.53;58.40;;;3.10;99.90;;;3.09;62.82;99277.72;6075491;23;20019;-81
2021/12/12 01:21:24;;;;;;;135.43;57.25;;;3.10;99.90;;;3.09;62.72;99281.22;6050626;23;20026;-81
2021/12/12 01:24:01;;;;;;;134.32;60.08;;;3.00;99.90;;;3.08;63.26;99282.25;6041221;23;20023;-81
2021/12/12 01:26:29;;;;;;;131.55;56.72;;;3.10;99.90;;;3.01;63.32;99281.47;6052393;23;20045;-81
2021/12/12 01:28:59;;;;;;;121.38;56.50;;;3.10;99.90;;;3.04;63.65;99275.66;6065512;23;20069;-81
2021/12/12 01:31:31;;;;;;;117.90;55.90;;;3.00;99.90;;;3.10;63.33;99285.53;6042935;23;20038;-81
2021/12/12 01:34:12;;;;;;;126.88;58.47;;;3.00;99.90;;;3.21;62.28;99273.34;6043518;23;20018;-81
2021/12/12 01:39:30;;;;;;;119.22;55.80;;;3.00;99.90;;;3.11;62.69;99270.28;6075759;23;20014;-81
2021/12/12 01:42:15;;;;;;;134.55;60.83;;;3.00;99.90;;;3.08;62.84;99270.69;6029073;23;20106;-81
2021/12/12 01:45:12;;;;;;;129.65;57.45;;;3.00;99.90;;;3.08;62.62;99279.59;6043475;23;20487;-81
2021/12/12 01:48:13;;;;;;;124.72;56.70;;;3.00;99.90;;;3.16;62.96;99284.69;6052524;23;20038;-81
2021/12/12 01:50:48;;;;;;;133.07;60.13;;;3.00;99.90;;;3.17;63.10;99278.28;6065744;23;20053;-81
2021/12/12 01:53:18;;;;;;;129.10;58.60;;;3.00;99.90;;;3.10;62.77;99280.16;6051099;23;20027;-81
2021/12/12 01:56:11;;;;;;;138.10;63.22;;;3.00;99.90;;;2.92;63.21;99280.03;6065055;23;20030;-80
2021/12/12 01:58:38;;;;;;;139.50;65.30;;;3.00;99.90;;;2.71;63.81;99290.00;6051697;23;20105;-80
2021/12/12 02:01:12;;;;;;;145.65;63.97;;;2.90;99.90;;;2.69;64.36;99288.56;6018049;23;20094;-81
2021/12/12 02:03:49;;;;;;;145.93;65.45;;;2.80;99.90;;;2.84;63.58;99294.50;6052505;23;20462;-81
2021/12/12 02:06:17;;;;;;;154.45;71.13;;;2.80;99.90;;;2.92;63.90;99301.47;6028797;23;20019;-80
2021/12/12 02:08:43;;;;;;;146.75;72.78;;;2.90;99.90;;;2.99;63.39;99288.88;6044232;23;20491;-80
2021/12/12 02:11:15;;;;;;;152.68;68.75;;;2.90;99.90;;;2.98;63.12;99297.97;6043647;23;20021;-81
2021/12/12 02:13:47;;;;;;;137.93;63.40;;;2.90;99.90;;;2.97;62.93;99297.13;6042548;23;20431;-81
2021/12/12 02:16:13;;;;;;;137.30;63.22;;;2.90;99.90;;;2.94;62.77;99296.75;6030319;23;20066;-81
2021/12/12 02:18:45;;;;;;;148.38;60.78;;;2.90;99.90;;;2.89;62.66;99294.69;6069698;23;20421;-81
2021/12/12 02:21:19;;;;;;;137.13;62.22;;;2.90;99.90;;;2.94;62.57;99294.06;6056389;23;20075;-81
2021/12/12 02:35:23;;;;;;;140.52;62.72;;;2.80;99.90;;;2.95;63.09;99293.84;6055764;23;20054;-81
2021/12/12 02:37:52;;;;;;;139.95;61.00;;;2.80;99.90;;;2.91;63.06;99308.69;6049249;23;20089;-81
2021/12/12 02:40:29;;;;;;;138.95;60.70;;;2.90;99.90;;;2.76;63.23;99308.13;6020624;23;20019;-81
2021/12/12 02:42:55;;;;;;;133.68;60.63;;;2.80;99.90;;;2.71;63.29;99307.94;6030738;23;20042;-81
2021/12/12 02:45:22;;;;;;;140.30;61.30;;;2.80;99.90;;;2.71;63.69;99308.75;6041327;23;20122;-81
2021/12/12 02:47:56;;;;;;;135.30;62.38;;;2.80;99.90;;;2.71;63.35;99313.31;6042537;23;20460;-81
2021/12/12 02:50:32;;;;;;;130.93;59.97;;;2.80;99.90;;;2.80;63.18;99312.88;6030954;23;20053;-81
2021/12/12 02:53:40;;;;;;;144.50;60.20;;;2.80;99.90;;;2.77;63.03;99317.81;6029121;23;20023;-80
2021/12/12 02:56:19;;;;;;;134.02;58.90;;;2.80;99.90;;;2.72;62.96;99315.78;6052532;23;20320;-80
2021/12/12 02:58:46;;;;;;;136.27;61.45;;;2.80;99.90;;;2.71;62.96;99314.13;6051669;23;20086;-81
2021/12/12 03:01:28;;;;;;;136.25;60.53;;;2.70;99.90;;;2.64;63.53;99307.13;6042472;23;20019;-81
2021/12/12 03:03:55;;;;;;;136.70;60.22;;;2.70;99.90;;;2.67;63.01;99312.91;6076676;23;20005;-81
2021/12/12 03:06:30;;;;;;;141.48;62.50;;;2.70;99.90;;;2.78;62.85;99316.78;6067313;23;20025;-81
2021/12/12 03:09:09;;;;;;;126.78;55.95;;;2.70;99.90;;;2.82;62.93;99321.53;6031099;23;20019;-81
2021/12/12 03:11:35;;;;;;;132.20;56.92;;;2.70;99.90;;;2.86;62.29;99329.13;6067591;23;20019;-81
2021/12/12 03:14:02;;;;;;;139.98;59.58;;;2.70;99.90;;;2.89;62.36;99337.56;6042070;23;20026;-81
2021/12/12 03:16:28;;;;;;;131.48;58.85;;;2.80;99.90;;;2.86;62.69;99323.78;6043662;23;20388;-81
2021/12/12 03:18:55;;;;;;;124.63;59.35;;;2.80;99.90;;;2.89;62.78;99331.38;6044357;23;20098;-81
2021/12/12 03:21:30;;;;;;;127.35;55.28;;;2.80;99.90;;;2.91;62.22;99330.16;6043439;23;20097;-81
2021/12/12 03:24:00;;;;;;;120.40;55.67;;;2.80;99.90;;;2.92;62.82;99331.78;6056224;23;20018;-81
2021/12/12 03:26:26;;;;;;;132.48;55.90;;;2.80;99.90;;;2.87;62.70;99328.09;6042820;23;20015;-81
2021/12/12 03:28:54;;;;;;;145.50;62.35;;;2.90;99.90;;;2.97;62.35;99329.28;6042457;23;20078;-81
2021/12/12 03:31:28;;;;;;;144.38;62.33;;;2.90;99.90;;;2.95;62.14;99336.75;6041837;23;20089;-80
2021/12/12 03:33:54;;;;;;;140.15;61.35;;;2.90;99.90;;;2.91;62.48;99340.84;6051363;23;20029;-81
2021/12/12 03:36:20;;;;;;;135.93;62.60;;;2.80;99.90;;;2.87;62.97;99328.91;6016688;23;20655;-81
2021/12/12 03:38:51;;;;;;;144.73;64.32;;;2.80;99.90;;;2.94;62.58;99332.41;6041015;23;20054;-81
2021/12/12 03:41:21;;;;;;;141.25;63.65;;;2.80;99.90;;;3.02;62.95;99328.66;6051634;23;20095;-81
2021/12/12 03:43:57;;;;;;;133.15;61.78;;;2.90;99.90;;;3.07;62.48;99338.75;6042705;23;20470;-80
2021/12/12 03:46:23;;;;;;;137.30;62.15;;;2.90;99.90;;;3.07;62.35;99344.94;6017750;23;20023;-81
2021/12/12 03:48:49;;;;;;;141.15;61.95;;;2.90;99.90;;;3.08;62.11;99340.38;6065472;23;20098;-81
2021/12/12 03:51:17;;;;;;;137.23;61.63;;;2.90;99.90;;;2.99;62.45;99347.84;6043198;23;20022;-82
2021/12/12 03:53:43;;;;;;;135.63;60.20;;;2.90;99.90;;;2.96;62.83;99348.28;6042683;23;20070;-81
2021/12/12 03:56:10;;;;;;;137.88;62.28;;;2.90;99.90;;;2.95;62.89;99349.28;6043121;23;20110;-81
2021/12/12 03:58:36;;;;;;;138.93;62.22;;;2.90;99.90;;;2.94;62.85;99350.34;6043659;23;20019;-81
2021/12/12 04:01:21;;;;;;;147.85;66.65;;;2.80;99.90;;;2.88;62.60;99356.56;6043507;23;20082;-81
2021/12/12 04:03:48;;;;;;;142.00;65.13;;;2.90;99.90;;;2.96;62.31;99362.50;6054918;23;20038;-81
2021/12/12 04:06:16;;;;;;;138.25;64.30;;;2.80;99.90;;;2.97;62.95;99355.28;6019319;23;20041;-81
2021/12/12 04:08:45;;;;;;;148.85;67.15;;;2.90;99.90;;;2.95;62.96;99349.28;6043014;23;20506;-81
2021/12/12 04:11:22;;;;;;;139.60;65.72;;;2.90;99.90;;;2.81;63.19;99341.28;6019696;23;20425;-82
2021/12/12 04:13:50;;;;;;;148.30;67.32;;;2.90;99.90;;;2.83;62.87;99341.09;6054464;23;20469;-81
2021/12/12 04:16:16;;;;;;;146.27;63.25;;;2.80;99.90;;;2.89;62.97;99342.09;6066457;23;20137;-81
2021/12/12 04:18:42;;;;;;;147.20;67.53;;;2.80;99.90;;;2.86;62.62;99338.00;6040371;23;20023;-81
2021/12/12 04:21:08;;;;;;;151.45;67.38;;;2.80;99.90;;;2.77;63.03;99328.53;6042269;23;20090;-81
2021/12/12 04:23:34;;;;;;;138.85;65.35;;;2.80;99.90;;;2.83;62.59;99338.41;6041759;23;20093;-81
2021/12/12 04:26:13;;;;;;;139.52;63.70;;;2.80;99.90;;;2.91;62.81;99340.03;6042950;23;20049;-81
2021/12/12 04:28:39;;;;;;;132.43;61.05;;;2.80;99.90;;;2.91;62.47;99345.41;6041743;23;20049;-81
2021/12/12 04:31:05;;;;;;;133.13;59.38;;;2.80;99.90;;;2.92;62.38;99334.44;6042387;23;20394;-81
2021/12/12 04:33:31;;;;;;;134.13;62.35;;;2.80;99.90;;;2.89;62.52;99344.78;6042492;23;20022;-81
2021/12/12 04:35:58;;;;;;;135.63;61.75;;;2.80;99.90;;;2.78;63.31;99349.75;6042197;23;20027;-81
2021/12/12 04:38:24;;;;;;;138.88;61.72;;;2.80;99.90;;;2.70;63.98;99366.06;6067543;23;20023;-81
2021/12/12 04:40:50;;;;;;;144.75;64.80;;;2.80;99.90;;;2.68;63.64;99370.78;6020074;23;20022;-81
2021/12/12 04:43:16;;;;;;;144.50;65.53;;;2.70;99.90;;;2.44;64.44;99376.78;6039457;23;20023;-82
2021/12/12 04:46:06;;;;;;;151.95;68.30;;;2.50;99.90;;;2.35;64.97;99378.84;6038522;23;20035;-81
2021/12/12 04:51:34;;;;;;;167.68;73.07;;;2.30;99.90;;;2.29;67.07;99391.22;6044267;23;20019;-81
2021/12/12 04:54:10;;;;;;;191.45;73.43;;;2.30;99.90;;;2.28;67.94;99394.91;6065536;23;20127;-81
2021/12/12 04:57:17;;;;;;;147.05;70.63;;;2.30;99.90;;;2.25;67.06;99400.66;6043949;23;20023;-81
2021/12/12 04:59:50;;;;;;;152.40;70.78;;;2.30;99.90;;;2.22;66.39;99400.28;6077412;23;20470;-81
2021/12/12 05:02:29;;;;;;;161.60;74.63;;;2.20;99.90;;;2.24;66.18;99404.38;6017888;23;20042;-81
2021/12/12 05:04:58;;;;;;;159.98;73.35;;;2.20;99.90;;;2.26;66.81;99415.69;6015287;23;20026;-81
2021/12/12 05:07:34;;;;;;;156.85;71.57;;;2.20;99.90;;;2.25;66.28;99424.75;6062750;23;20018;-81
2021/12/12 05:10:14;;;;;;;166.05;72.43;;;2.20;99.90;;;2.27;66.44;99428.06;6071365;23;20610;-81
2021/12/12 05:13:34;;;;;;;162.15;74.50;;;2.30;99.90;;;2.30;66.84;99435.69;6048529;23;20372;-81
2021/12/12 05:16:12;;;;;;;160.88;72.03;;;2.30;99.90;;;2.35;66.47;99430.53;6032012;23;20579;-81
2021/12/12 05:18:47;;;;;;;155.23;71.90;;;2.30;99.90;;;2.52;65.62;99439.00;6052473;23;20018;-81
2021/12/12 05:21:24;;;;;;;162.70;72.72;;;2.40;99.90;;;2.63;65.21;99439.41;6051967;23;20038;-81
2021/12/12 05:23:51;;;;;;;160.10;74.78;;;2.40;99.90;;;2.55;65.25;99443.13;6043100;23;20022;-81
2021/12/12 05:26:25;;;;;;;163.23;72.80;;;2.50;99.90;;;2.72;64.89;99441.69;6041802;23;20401;-81
2021/12/12 05:29:05;;;;;;;154.32;70.93;;;2.50;99.90;;;2.76;64.61;99440.22;6028361;23;20018;-81
2021/12/12 05:31:32;;;;;;;168.30;74.90;;;2.60;99.90;;;2.78;64.70;99445.38;6052464;23;20045;-81
2021/12/12 05:33:58;;;;;;;152.15;71.72;;;2.60;99.90;;;2.75;65.40;99449.31;6039976;23;20475;-80
2021/12/12 05:36:24;;;;;;;161.20;76.13;;;2.70;99.90;;;2.82;64.82;99450.13;6039305;23;20023;-80
2021/12/12 05:38:51;;;;;;;153.35;71.15;;;2.70;99.90;;;2.79;64.58;99455.06;6064250;23;20114;-80
2021/12/12 05:41:18;;;;;;;146.60;71.10;;;2.70;99.90;;;2.79;64.59;99455.06;6016547;23;20023;-80
2021/12/12 05:43:48;;;;;;;159.27;70.82;;;2.80;99.90;;;2.77;64.69;99471.38;6040800;23;20015;-80
2021/12/12 05:46:18;;;;;;;141.02;66.88;;;2.80;99.90;;;2.81;64.20;99459.19;6062670;23;20079;-80
2021/12/12 05:48:44;;;;;;;149.15;69.53;;;2.80;99.90;;;2.92;63.87;99467.63;6039947;23;20023;-80
2021/12/12 05:51:11;;;;;;;157.48;70.32;;;2.80;99.90;;;2.98;64.20;99464.94;6039553;23;20019;-80
2021/12/12 05:53:37;;;;;;;143.30;67.40;;;2.90;99.90;;;2.92;64.08;99459.59;6039771;23;20027;-80
2021/12/12 05:56:04;;;;;;;142.40;66.72;;;2.90;99.90;;;2.89;64.04;99454.66;6039359;23;20023;-80
2021/12/12 05:58:30;;;;;;;134.10;67.78;;;2.90;99.90;;;2.78;64.07;99456.09;6062508;23;20150;-80
2021/12/12 06:00:59;;;;;;;146.93;70.00;;;2.90;99.90;;;2.78;64.02;99454.25;6016445;23;20105;-80
2021/12/12 06:03:30;;;;;;;142.45;69.25;;;2.90;99.90;;;2.83;64.06;99454.44;6062498;23;20071;-80
2021/12/12 06:05:57;;;;;;;128.50;63.63;;;2.90;99.90;;;2.93;64.18;99459.38;6048668;23;20399;-80
2021/12/12 06:08:25;;;;;;;135.48;65.18;;;2.90;99.90;;;2.89;63.80;99460.81;6039086;23;20110;-80
2021/12/12 06:10:51;;;;;;;140.85;66.68;;;2.90;99.90;;;2.87;63.49;99457.53;6038973;23;20388;-80
2021/12/12 06:13:17;;;;;;;133.38;63.90;;;2.90;99.90;;;2.86;64.23;99466.59;6015533;23;20083;-81
2021/12/12 06:15:50;;;;;;;144.13;65.07;;;2.90;99.90;;;2.83;63.79;99464.34;6037101;23;20368;-81
2021/12/12 06:18:18;;;;;;;138.07;65.35;;;2.90;99.90;;;2.87;63.86;99470.91;6037419;23;20211;-81
2021/12/12 06:20:44;;;;;;;131.68;62.92;;;2.90;99.90;;;2.85;63.73;99472.16;6037028;23;20094;-81
2021/12/12 06:23:10;;;;;;;135.43;64.90;;;2.90;99.90;;;2.83;63.74;99473.19;6036629;23;20023;-80
2021/12/12 06:25:38;;;;;;;131.40;61.45;;;2.80;99.90;;;2.89;63.63;99481.44;6037728;23;20105;-81
2021/12/12 06:28:28;;;;;;;137.80;64.13;;;2.90;99.90;;;2.80;63.58;99470.94;6037968;23;20019;-82
2021/12/12 06:30:55;;;;;;;129.55;58.85;;;2.90;99.90;;;2.87;63.63;99478.13;6047380;23;20391;-82
2021/12/12 06:33:21;;;;;;;125.25;57.15;;;2.90;99.90;;;2.90;63.27;99477.72;6037871;23;20086;-81
2021/12/12 06:35:48;;;;;;;128.73;57.28;;;2.90;99.90;;;2.90;63.97;99477.72;6036473;23;20491;-81
2021/12/12 06:38:14;;;;;;;127.30;59.10;;;2.90;99.90;;;2.94;63.59;99468.25;6034271;23;20053;-82
2021/12/12 06:40:41;;;;;;;123.72;58.50;;;2.90;99.90;;;2.98;63.21;99464.94;6035349;23;20019;-82
2021/12/12 06:43:08;;;;;;;135.65;60.47;;;2.90;99.90;;;3.05;63.33;99464.94;6034077;23;20062;-81
2021/12/12 06:45:35;;;;;;;126.20;59.55;;;3.00;99.90;;;3.06;63.37;99455.06;6034246;23;20023;-81
2021/12/12 06:48:07;;;;;;;131.57;61.67;;;3.00;99.90;;;3.10;62.86;99459.75;6035155;23;20089;-81
2021/12/12 06:50:35;;;;;;;136.63;63.65;;;3.00;99.90;;;3.02;62.85;99468.03;6041947;23;20062;-81
2021/12/12 06:53:02;;;;;;;129.20;61.95;;;3.10;99.90;;;2.98;63.10;99461.47;6036200;23;20023;-81
2021/12/12 06:55:28;;;;;;;120.10;62.25;;;3.10;99.90;;;2.99;63.00;99461.22;6012926;23;20030;-80
2021/12/12 06:57:54;;;;;;;128.15;59.88;;;3.00;99.90;;;2.99;63.45;99463.09;6036545;23;20019;-80
2021/12/12 07:00:22;;;;;;;132.95;65.90;;;3.00;99.90;;;3.01;63.31;99469.88;6036632;23;20025;-80
2021/12/12 07:02:48;;;;;;;127.97;62.55;;;3.00;99.90;;;3.02;63.38;99471.53;6037693;23;20023;-80
2021/12/12 07:05:27;;;;;;;142.02;65.65;;;3.10;99.90;;;3.02;63.62;99462.66;6036905;23;20490;-81
2021/12/12 07:07:53;;;;;;;127.70;61.95;;;3.10;99.90;;;3.08;63.34;99453.81;6047716;23;20050;-80
2021/12/12 07:10:22;;;;;;;128.25;60.53;;;3.10;99.90;;;3.13;63.00;99458.53;6024293;23;20079;-80
2021/12/12 07:12:54;;;;;;;127.60;60.75;;;3.10;99.90;;;3.17;62.44;99460.59;6038182;23;20022;-79
2021/12/12 07:15:22;;;;;;;127.55;62.28;;;3.10;99.90;;;3.15;62.49;99465.31;6049780;23;20106;-78
2021/12/12 07:17:48;;;;;;;120.85;59.20;;;3.20;99.90;;;3.11;62.44;99468.66;6034696;23;20419;-78
2021/12/12 07:20:14;;;;;;;132.88;64.20;;;3.20;99.90;;;3.20;62.83;99467.38;6035076;23;20022;-78
2021/12/12 07:22:40;;;;;;;122.32;59.92;;;3.20;99.90;;;3.04;63.11;99461.44;6010831;23;20533;-78
2021/12/12 07:25:07;;;;;;;129.50;60.28;;;3.20;99.90;;;3.13;62.22;99456.69;6035194;23;20074;-78
2021/12/12 07:27:33;;;;;;;116.53;57.05;;;3.20;99.90;;;3.03;62.33;99465.16;6057570;23;20023;-78
2021/12/12 07:30:00;;;;;;;127.75;60.17;;;3.10;99.90;;;2.90;61.88;99470.53;6032178;23;20109;-78
2021/12/12 07:32:26;;;;;;;125.47;60.03;;;3.00;99.90;;;2.77;61.74;99474.03;6033521;23;20023;-78
2021/12/12 07:34:52;;;;;;;130.70;57.83;;;2.90;99.90;;;2.60;62.02;99462.09;6032740;23;20066;-78
2021/12/12 07:37:18;;;;;;;137.45;60.80;;;2.70;99.90;;;2.48;61.85;99469.06;6033936;23;20386;-78
2021/12/12 07:39:44;;;;;;;123.28;60.75;;;2.60;99.90;;;2.42;62.27;99464.50;6043634;23;20019;-78
2021/12/12 07:42:10;;;;;;;135.57;66.32;;;2.50;99.90;;;2.42;63.09;99477.91;6034623;23;20019;-78
2021/12/12 07:44:38;;;;;;;142.75;68.68;;;2.40;99.90;;;2.42;63.43;99470.72;6034004;23;20027;-78
2021/12/12 07:47:05;;;;;;;140.77;65.38;;;2.50;99.90;;;2.57;63.36;99481.22;6011370;23;20430;-78
2021/12/12 07:49:36;;;;;;;162.57;69.72;;;2.50;99.90;;;2.55;63.63;99480.63;6034895;23;20444;-78
2021/12/12 07:52:06;;;;;;;152.73;72.13;;;2.50;99.90;;;2.43;63.84;99474.22;6057022;23;20803;-78
2021/12/12 07:54:33;;;;;;;145.88;65.43;;;2.60;99.90;;;2.16;64.35;99483.03;6044526;23;20027;-79
2021/12/12 07:56:59;;;;;;;139.20;65.05;;;2.40;99.90;;;1.98;64.66;99484.59;6034706;23;20027;-78
2021/12/12 07:59:26;;;;;;;128.30;62.83;;;2.20;99.90;;;1.93;64.58;99493.22;6010349;23;20093;-78
2021/12/12 08:01:52;;;;;;;146.15;65.03;;;2.00;99.90;;;1.86;64.42;99487.88;6011005;23;20449;-78
2021/12/12 08:04:21;;;;;;;140.57;63.38;;;2.00;99.90;;;1.73;64.51;99494.00;6034408;23;20019;-78
2021/12/12 08:06:47;;;;;;;160.07;67.40;;;1.90;99.90;;;1.57;64.92;99488.16;6058906;23;20042;-79
2021/12/12 08:09:13;;;;;;;150.60;72.88;;;1.80;99.90;;;1.43;65.32;99481.91;6058906;23;20051;-78
2021/12/12 08:11:40;;;;;;;155.25;73.32;;;1.70;99.90;;;1.42;65.35;99488.28;6058428;23;20023;-79
2021/12/12 08:14:11;;;;;;;158.00;72.38;;;1.70;99.90;;;1.55;65.47;99493.69;6034831;23;20050;-79
2021/12/12 08:16:37;;;;;;;162.93;76.35;;;1.60;99.90;;;1.49;65.44;99484.63;6035317;23;20451;-78
2021/12/12 08:19:03;;;;;;;186.73;79.13;;;1.60;99.90;;;1.44;66.31;99489.72;6035766;23;20018;-78
2021/12/12 08:21:33;;;;;;;238.55;80.72;;;1.60;99.90;;;1.48;66.52;99485.66;6033938;23;20050;-78
2021/12/12 08:24:09;;;;;;;158.43;77.75;;;1.60;99.90;;;1.49;66.04;99484.63;6044803;23;20030;-78
2021/12/12 08:26:38;;;;;;;181.63;80.95;;;1.60;99.90;;;1.51;66.09;99487.09;6046091;23;20356;-79
2021/12/12 08:29:08;;;;;;;179.70;81.60;;;1.60;99.90;;;1.51;66.37;99493.25;6034884;23;20023;-79
2021/12/12 08:31:36;;;;;;;185.18;84.78;;;1.70;99.90;;;1.62;66.17;99488.38;6043790;23;20383;-79
2021/12/12 08:34:04;;;;;;;168.00;81.47;;;1.70;99.90;;;1.69;66.36;99491.91;6034355;23;20316;-79
2021/12/12 08:36:35;;;;;;;177.80;79.30;;;1.70;99.90;;;1.69;66.26;99494.59;6034356;23;20053;-79
2021/12/12 08:39:03;;;;;;;166.90;82.45;;;1.80;99.90;;;1.77;66.92;99491.75;6012396;23;20476;-79
2021/12/12 08:41:29;;;;;;;169.85;80.65;;;1.80;99.90;;;1.82;66.62;99496.50;6034547;23;20460;-79
2021/12/12 08:43:57;;;;;;;156.30;73.13;;;1.90;99.90;;;1.89;66.44;99492.81;6034515;23;20029;-79
2021/12/12 08:46:23;;;;;;;151.98;71.75;;;1.90;99.90;;;1.95;66.82;99489.31;6057539;23;20077;-79
2021/12/12 08:48:51;;;;;;;151.63;74.75;;;2.00;99.90;;;2.05;66.30;99496.16;6034922;23;20454;-79
2021/12/12 08:51:29;;;;;;;157.00;75.13;;;2.10;99.90;;;2.06;66.11;99492.44;6032336;23;20029;-79
2021/12/12 08:54:02;;;;;;;146.98;71.97;;;2.20;99.90;;;2.14;65.79;99487.75;6045381;23;20428;-80
2021/12/12 08:56:41;;;;;;;143.02;70.57;;;2.20;99.90;;;2.17;66.17;99487.34;6022378;23;20023;-80
2021/12/12 08:59:10;;;;;;;142.50;71.85;;;2.30;99.90;;;2.40;66.00;99486.16;6047429;23;20563;-80
2021/12/12 09:01:39;;;;;;;147.43;68.22;;;2.30;99.90;;;2.48;65.17;99491.31;6034823;23;20097;-80
2021/12/12 09:04:05;;;;;;;137.10;64.82;;;2.40;99.90;;;2.55;65.24;99485.97;6034580;23;20102;-80
2021/12/12 09:06:56;;;;;;;137.65;65.03;;;2.50;99.90;;;2.64;64.59;99486.59;6034699;23;20026;-80
2021/12/12 09:09:26;;;;;;;135.75;66.32;;;2.60;99.90;;;2.69;64.21;99486.78;6068780;23;20018;-80
2021/12/12 09:11:59;;;;;;;130.90;64.50;;;2.70;99.90;;;2.83;63.57;99493.81;6012065;23;20038;-80
2021/12/12 09:14:34;;;;;;;134.13;63.80;;;2.80;99.90;;;2.86;63.51;99485.38;6067527;23;20830;-81
2021/12/12 09:17:15;;;;;;;132.95;65.57;;;2.90;99.90;;;3.07;62.92;99483.50;6044493;23;20023;-80
2021/12/12 09:19:52;;;;;;;139.90;69.47;;;3.00;99.90;;;3.17;62.76;99487.38;6068989;23;20438;-80
2021/12/12 09:22:30;;;;;;;129.43;62.58;;;3.10;99.90;;;3.25;61.94;99481.78;6068070;23;20022;-80
2021/12/12 09:25:11;;;;;;;128.18;61.22;;;3.20;99.90;;;3.21;62.26;99474.41;6068198;23;20023;-80
2021/12/12 09:27:45;;;;;;;136.80;64.95;;;3.30;99.90;;;3.38;61.54;99464.03;6045571;23;20023;-80
2021/12/12 09:30:23;;;;;;;131.52;62.17;;;3.40;99.90;;;3.42;61.15;99471.47;6068417;23;20029;-80
2021/12/12 09:33:09;;;;;;;130.15;61.72;;;3.40;99.90;;;3.43;61.59;99466.91;6035943;23;20027;-80
2021/12/12 09:35:40;;;;;;;121.80;59.30;;;3.50;99.90;;;3.55;61.43;99473.28;6088980;23;20027;-80
2021/12/12 09:38:19;;;;;;;;;;;3.50;99.90;;;3.53;61.27;99467.28;6015721;23;20439;-80
2021/12/12 09:41:04;;;;;;;112.13;53.58;;;3.60;99.90;;;3.66;60.58;99467.28;6067330;23;19954;-80
2021/12/12 09:43:48;;;;;;;117.75;54.05;;;3.70;99.90;;;3.77;59.68;99471.16;6069910;23;20018;-80
2021/12/12 09:47:11;;;;;;;110.55;55.08;;;3.80;99.90;;;3.90;59.66;99460.34;6058053;23;20130;-80
2021/12/12 09:53:03;;;;;;;100.88;49.83;;;4.10;99.90;;;4.18;59.27;99463.72;6060102;23;20023;-80
2021/12/12 09:55:42;;;;;;;100.30;52.10;;;4.20;99.90;;;4.26;58.55;99455.41;6069119;23;20027;-80
2021/12/12 09:58:54;;;;;;;107.53;50.33;;;4.40;99.90;;;4.45;57.40;99453.59;6036435;23;20476;-80
2021/12/12 10:01:57;;;;;;;103.50;50.03;;;4.40;99.90;;;4.47;58.20;99451.53;6042574;23;20063;-80
2021/12/12 10:04:28;;;;;;;96.80;47.55;;;4.50;99.90;;;4.48;57.09;99447.81;6023593;23;20075;-80
2021/12/12 10:07:30;;;;;;;87.68;45.63;;;4.60;99.90;;;4.72;57.00;99452.38;6020291;23;20329;-81
2021/12/12 10:09:59;;;;;;;95.18;46.67;;;4.70;99.90;;;4.85;56.76;99454.13;6060062;23;20451;-80
2021/12/12 10:12:36;;;;;;;93.47;43.75;;;4.80;99.90;;;4.98;56.44;99454.00;6011253;23;20340;-80
2021/12/12 10:15:13;;;;;;;81.45;42.15;;;5.00;99.90;;;5.13;55.08;99455.50;6020137;23;20061;-80
2021/12/12 10:18:06;;;;;;;94.20;44.83;;;5.10;99.90;;;5.21;55.01;99447.97;6067545;23;20022;-80
2021/12/12 10:20:41;;;;;;;95.88;46.20;;;5.20;99.90;;;5.20;54.70;99449.03;6049071;23;20070;-80
2021/12/12 10:23:51;;;;;;;91.00;42.92;;;5.30;99.90;;;5.19;54.81;99449.22;6044754;23;20019;-80
2021/12/12 10:26:28;;;;;;;78.15;37.67;;;5.30;99.90;;;5.17;55.38;99440.59;6050092;23;20030;-80
2021/12/12 10:29:14;;;;;;;82.53;41.63;;;5.20;99.90;;;5.21;55.13;99444.47;6036728;23;20030;-80
2021/12/12 10:31:49;;;;;;;78.80;37.67;;;5.30;99.90;;;5.20;54.15;99446.34;6062184;23;20019;-80
2021/12/12 10:34:33;;;;;;;57.35;26.48;;;5.30;99.90;;;5.13;55.76;99434.81;6048167;23;20118;-80
2021/12/12 10:37:23;;;;;;;39.70;20.45;;;5.20;99.90;;;5.10;55.20;99445.22;6014697;23;20109;-80
2021/12/12 10:40:04;;;;;;;35.58;19.15;;;5.20;99.90;;;4.99;55.14;99442.22;6038752;23;20101;-80
2021/12/12 10:42:35;;;;;;;40.30;21.55;;;5.10;99.90;;;4.96;55.38;99447.19;6070224;23;20557;-81
2021/12/12 10:45:06;;;;;;;50.53;22.92;;;5.00;99.90;;;4.93;55.62;99450.31;6045820;23;20449;-81
2021/12/12 10:47:59;;;;;;;41.90;20.35;;;5.10;99.90;;;4.93;56.03;99451.13;6046546;23;20019;-81
2021/12/12 10:51:05;;;;;;;49.55;22.58;;;5.10;99.90;;;5.10;54.70;99440.66;6090885;23;20272;-81
2021/12/12 10:54:03;;;;;;;44.55;22.70;;;5.10;99.90;;;5.22;54.78;99443.44;6048835;23;20029;-81
2021/12/12 10:56:50;;;;;;;41.33;22.05;;;5.20;99.90;;;5.32;54.12;99442.94;6070842;23;20081;-80